Time;durP1;ratioP1;P1;durP2;ratioP2;P2;SDS_P1;SDS_P2;PMS_P1;PMS_P2;Temp;Humidity;BMP_temperature;BMP_pressure;BME280_temperature;BME280_humidity;BME280_pressure;Samples;Min_cycle;Max_cycle;Signal;HPM_P1;HPM_P2
2022/01/11 00:00:10;;;;;;;13.27;5.70;;;3.90;86.70;;;;;;6051867;23;20022;-71
2022/01/11 00:02:41;;;;;;;12.38;5.78;;;3.80;86.70;;;;;;6053662;23;20046;-70
2022/01/11 00:05:20;;;;;;;12.65;5.97;;;3.80;86.70;;;;;;6055150;23;20030;-70
2022/01/11 00:07:55;;;;;;;11.20;6.28;;;3.80;86.70;;;;;;6055378;23;20109;-69
2022/01/11 00:10:49;;;;;;;10.57;4.97;;;3.90;86.70;;;;;;5263731;23;10001405;-72
2022/01/11 00:13:23;;;;;;;10.02;4.68;;;3.90;86.60;;;;;;2504224;23;10001930;-70
2022/01/11 00:15:51;;;;;;;11.00;4.93;;;3.80;86.60;;;;;;6055859;23;20599;-70
2022/01/11 00:18:25;;;;;;;10.80;4.85;;;3.80;86.60;;;;;;6057065;23;20121;-71
2022/01/11 00:20:53;;;;;;;9.23;4.72;;;3.80;86.60;;;;;;6057349;23;20110;-71
2022/01/11 00:26:05;;;;;;;9.48;5.10;;;3.80;86.50;;;;;;6057755;23;20423;-71
2022/01/11 00:28:34;;;;;;;11.90;5.60;;;3.70;86.60;;;;;;6054535;23;20281;-71
2022/01/11 00:31:15;;;;;;;10.45;4.75;;;3.80;86.60;;;;;;6052569;23;20026;-71
2022/01/11 00:33:45;;;;;;;14.73;5.75;;;3.80;86.50;;;;;;6052797;23;20022;-71
2022/01/11 00:36:12;;;;;;;8.52;4.60;;;3.80;86.50;;;;;;6054182;23;20031;-71
2022/01/11 00:38:41;;;;;;;14.32;6.30;;;3.80;86.60;;;;;;6074242;23;20576;-70
2022/01/11 00:41:10;;;;;;;12.35;5.78;;;3.70;86.60;;;;;;6057140;23;20578;-71
2022/01/11 00:43:40;;;;;;;10.27;5.45;;;3.80;86.70;;;;;;6061493;23;20018;-70
2022/01/11 00:46:07;;;;;;;15.77;6.50;;;3.70;86.50;;;;;;6062202;23;20030;-71
2022/01/11 00:48:42;;;;;;;13.10;6.25;;;3.70;86.70;;;;;;6057726;23;20019;-71
2022/01/11 00:51:10;;;;;;;13.60;5.90;;;3.70;86.80;;;;;;6051333;23;20027;-71
2022/01/11 00:53:40;;;;;;;12.32;5.82;;;3.70;86.70;;;;;;6053068;23;20413;-70
2022/01/11 00:56:07;;;;;;;13.20;5.70;;;3.70;86.70;;;;;;6053273;23;20524;-71
2022/01/11 00:58:34;;;;;;;12.95;5.53;;;3.70;86.80;;;;;;6051714;23;20026;-71
2022/01/11 01:01:01;;;;;;;10.95;5.43;;;3.70;86.80;;;;;;6051051;23;20042;-71
2022/01/11 01:03:30;;;;;;;13.38;5.00;;;3.70;86.80;;;;;;6052511;23;20023;-71
2022/01/11 01:05:58;;;;;;;10.70;5.40;;;3.70;86.70;;;;;;6052070;23;20027;-71
2022/01/11 01:08:28;;;;;;;11.77;6.55;;;3.70;86.60;;;;;;6049694;23;20030;-71
2022/01/11 01:10:55;;;;;;;12.05;5.07;;;3.70;86.60;;;;;;6050180;23;20484;-70
2022/01/11 01:13:26;;;;;;;9.65;5.35;;;3.70;86.60;;;;;;6074428;23;20023;-71
2022/01/11 01:15:59;;;;;;;11.68;4.50;;;3.70;86.70;;;;;;6073811;23;20034;-72
2022/01/11 01:18:45;;;;;;;9.48;4.97;;;3.70;86.70;;;;;;6077578;23;20026;-71
2022/01/11 01:21:14;;;;;;;10.95;6.25;;;3.80;86.60;;;;;;6075898;23;20480;-72
2022/01/11 01:23:41;;;;;;;12.25;5.53;;;3.80;86.60;;;;;;6072857;23;20031;-72
2022/01/11 01:26:09;;;;;;;11.27;5.38;;;3.80;86.70;;;;;;6076246;23;20022;-72
2022/01/11 01:28:36;;;;;;;9.73;5.45;;;3.70;86.60;;;;;;6054272;23;20027;-72
2022/01/11 01:31:03;;;;;;;11.23;6.00;;;3.70;86.70;;;;;;6051494;23;20050;-71
2022/01/11 01:33:32;;;;;;;9.45;5.05;;;3.70;86.80;;;;;;6074365;23;20066;-71
2022/01/11 01:36:02;;;;;;;10.57;5.38;;;3.70;86.80;;;;;;6052278;23;20087;-71
2022/01/11 01:38:31;;;;;;;9.70;4.37;;;3.70;86.80;;;;;;6049306;23;20113;-72
2022/01/11 01:41:07;;;;;;;8.80;4.25;;;3.70;86.80;;;;;;6045433;23;20957;-71
2022/01/11 01:43:34;;;;;;;10.20;5.10;;;3.70;86.70;;;;;;6050906;23;20419;-71
2022/01/11 01:46:01;;;;;;;12.55;5.55;;;3.70;86.80;;;;;;6076692;23;20652;-71
2022/01/11 01:48:29;;;;;;;14.25;5.55;;;3.70;86.70;;;;;;6079035;23;20105;-71
2022/01/11 01:50:57;;;;;;;9.20;4.95;;;3.70;86.70;;;;;;6052100;23;20102;-72
2022/01/11 01:53:24;;;;;;;11.73;5.40;;;3.70;86.70;;;;;;6052194;23;20023;-71
2022/01/11 01:55:52;;;;;;;10.48;5.10;;;3.70;86.60;;;;;;6053806;23;20037;-71
2022/01/11 01:58:20;;;;;;;11.90;6.03;;;3.70;86.70;;;;;;6049594;23;20094;-71
2022/01/11 02:00:53;;;;;;;12.77;5.75;;;3.70;86.80;;;;;;6045709;23;20026;-71
2022/01/11 02:03:26;;;;;;;13.65;5.38;;;3.70;86.90;;;;;;6073634;23;20050;-70
2022/01/11 02:05:55;;;;;;;9.15;4.97;;;3.70;86.80;;;;;;6050834;23;20134;-72
2022/01/11 02:08:22;;;;;;;10.82;5.30;;;3.60;86.70;;;;;;6053120;23;20022;-71
2022/01/11 02:10:55;;;;;;;13.20;6.07;;;3.60;86.70;;;;;;5686559;23;10000943;-72
2022/01/11 02:13:23;;;;;;;9.82;4.30;;;3.60;86.70;;;;;;831860;23;10001637;-71
2022/01/11 02:15:51;;;;;;;13.10;5.60;;;3.60;86.60;;;;;;6075517;23;20415;-72
2022/01/11 02:18:21;;;;;;;11.73;5.13;;;3.60;86.60;;;;;;6053204;23;20034;-72
2022/01/11 02:20:52;;;;;;;9.63;5.57;;;3.60;86.60;;;;;;6051171;23;20104;-72
2022/01/11 02:23:30;;;;;;;11.57;5.35;;;3.60;86.60;;;;;;6074430;23;20397;-70
2022/01/11 02:25:58;;;;;;;9.02;5.40;;;3.50;86.50;;;;;;6050883;23;20050;-69
2022/01/11 02:28:28;;;;;;;8.93;3.92;;;3.50;86.50;;;;;;6074951;23;20082;-72
2022/01/11 02:30:56;;;;;;;9.73;5.05;;;3.60;86.50;;;;;;6050017;23;20038;-71
2022/01/11 02:33:34;;;;;;;10.32;4.78;;;3.60;86.40;;;;;;6074560;23;20057;-71
2022/01/11 02:36:24;;;;;;;9.57;4.68;;;3.50;86.50;;;;;;6049794;23;20633;-70
2022/01/11 02:38:54;;;;;;;8.38;4.55;;;3.60;86.50;;;;;;6049863;23;20492;-72
2022/01/11 02:41:21;;;;;;;9.80;4.75;;;3.60;86.40;;;;;;6052022;23;20061;-72
2022/01/11 02:43:50;;;;;;;7.90;4.55;;;3.60;86.40;;;;;;6072599;23;20130;-71
2022/01/11 02:46:19;;;;;;;9.30;4.97;;;3.60;86.50;;;;;;6050577;23;20035;-72
2022/01/11 02:48:47;;;;;;;10.02;4.55;;;3.60;86.50;;;;;;6072519;23;20347;-71
2022/01/11 02:51:14;;;;;;;13.10;5.00;;;3.60;86.60;;;;;;6073633;23;20431;-71
2022/01/11 02:53:48;;;;;;;12.40;5.35;;;3.60;86.50;;;;;;6073015;23;20042;-71
2022/01/11 02:56:17;;;;;;;10.73;4.87;;;3.60;86.40;;;;;;6048908;23;20122;-71
2022/01/11 02:58:44;;;;;;;10.52;4.63;;;3.60;86.40;;;;;;6047666;23;20466;-71
2022/01/11 03:01:12;;;;;;;10.52;5.13;;;3.60;86.40;;;;;;6070731;23;20061;-71
2022/01/11 03:03:40;;;;;;;9.57;5.38;;;3.60;86.40;;;;;;6070974;23;20023;-71
2022/01/11 03:06:08;;;;;;;11.60;5.15;;;3.60;86.40;;;;;;6072890;23;20027;-70
2022/01/11 03:08:42;;;;;;;12.57;5.50;;;3.60;86.40;;;;;;6048362;23;20019;-69
2022/01/11 03:11:11;;;;;;;10.50;4.55;;;3.60;86.40;;;;;;6074481;23;20019;-71
2022/01/11 03:13:41;;;;;;;11.18;5.38;;;3.60;86.40;;;;;;6072096;23;20314;-72
2022/01/11 03:16:09;;;;;;;10.73;5.30;;;3.60;86.40;;;;;;6048407;23;20038;-71
2022/01/11 03:18:36;;;;;;;14.80;6.15;;;3.60;86.50;;;;;;6070542;23;20027;-71
2022/01/11 03:21:05;;;;;;;11.13;4.90;;;3.60;86.30;;;;;;6071812;23;20046;-71
2022/01/11 03:23:33;;;;;;;10.98;5.35;;;3.60;86.40;;;;;;6074427;23;20019;-71
2022/01/11 03:26:02;;;;;;;8.70;4.93;;;3.60;86.40;;;;;;6074205;23;20454;-70
2022/01/11 03:28:33;;;;;;;9.57;4.47;;;3.60;86.40;;;;;;6048744;23;20029;-72
2022/01/11 03:31:01;;;;;;;8.30;4.60;;;3.60;86.40;;;;;;6074742;23;20465;-71
2022/01/11 03:33:35;;;;;;;9.77;4.47;;;3.50;86.40;;;;;;6074613;23;20022;-72
2022/01/11 03:36:02;;;;;;;9.88;4.57;;;3.50;86.50;;;;;;6075397;23;20444;-71
2022/01/11 03:38:31;;;;;;;8.93;4.38;;;3.60;86.50;;;;;;6074587;23;20101;-70
2022/01/11 03:41:05;;;;;;;9.15;4.45;;;3.50;86.40;;;;;;6049520;23;20474;-72
2022/01/11 03:43:33;;;;;;;8.35;4.95;;;3.50;86.50;;;;;;6051517;23;20046;-71
2022/01/11 03:46:00;;;;;;;10.20;5.53;;;3.50;86.50;;;;;;6072952;23;20345;-70
2022/01/11 03:48:29;;;;;;;9.55;5.10;;;3.50;86.60;;;;;;6052328;23;20035;-72
2022/01/11 03:50:56;;;;;;;10.55;4.47;;;3.50;86.60;;;;;;6075198;23;20030;-72
2022/01/11 03:53:55;;;;;;;9.43;4.88;;;3.50;86.60;;;;;;6048154;23;20159;-71
2022/01/11 03:56:26;;;;;;;9.38;4.65;;;3.60;86.60;;;;;;6052286;23;20054;-71
2022/01/11 03:59:06;;;;;;;8.65;4.50;;;3.50;86.60;;;;;;6075695;23;20027;-71
2022/01/11 04:01:38;;;;;;;9.40;3.72;;;3.50;86.60;;;;;;6048462;23;20106;-71
2022/01/11 04:04:06;;;;;;;9.02;3.83;;;3.50;86.50;;;;;;6054082;23;20098;-72
2022/01/11 04:06:33;;;;;;;8.02;4.10;;;3.50;86.60;;;;;;6075713;23;20110;-71
2022/01/11 04:09:01;;;;;;;10.23;4.43;;;3.50;86.60;;;;;;6054008;23;20097;-71
2022/01/11 04:11:43;;;;;;;8.19;4.14;;;3.60;86.60;;;;;;4149102;23;10021708;-71
2022/01/11 04:14:12;;;;;;;7.85;4.10;;;3.50;86.60;;;;;;2710806;23;10001905;-71
2022/01/11 04:16:39;;;;;;;7.38;4.07;;;3.50;86.50;;;;;;6051026;23;20027;-71
2022/01/11 04:19:08;;;;;;;9.45;3.95;;;3.50;86.70;;;;;;6075474;23;20026;-71
2022/01/11 04:21:37;;;;;;;7.82;4.15;;;3.50;86.70;;;;;;6049222;23;20524;-72
2022/01/11 04:24:05;;;;;;;8.70;3.97;;;3.60;86.70;;;;;;6053172;23;20392;-71
2022/01/11 04:26:32;;;;;;;9.10;4.43;;;3.60;86.60;;;;;;6050760;23;20418;-71
2022/01/11 04:29:04;;;;;;;8.38;4.32;;;3.50;86.60;;;;;;6076726;23;20102;-71
2022/01/11 04:31:33;;;;;;;9.45;3.58;;;3.50;86.60;;;;;;6055391;23;20465;-71
2022/01/11 04:34:00;;;;;;;7.75;3.72;;;3.50;86.60;;;;;;6053905;23;20440;-71
2022/01/11 04:36:30;;;;;;;7.05;4.18;;;3.60;86.50;;;;;;6052907;23;20365;-71
2022/01/11 04:38:57;;;;;;;8.25;4.30;;;3.60;86.60;;;;;;6053739;23;20030;-72
2022/01/11 04:41:25;;;;;;;9.88;4.00;;;3.60;86.60;;;;;;6077393;23;20023;-72
2022/01/11 04:43:52;;;;;;;9.25;4.60;;;3.60;86.60;;;;;;6054515;23;20050;-71
2022/01/11 04:46:19;;;;;;;10.38;3.95;;;3.60;86.70;;;;;;6077638;23;20106;-71
2022/01/11 04:48:51;;;;;;;8.15;4.50;;;3.50;86.60;;;;;;6053047;23;20023;-71
2022/01/11 04:51:19;;;;;;;9.27;5.15;;;3.50;86.70;;;;;;6055153;23;20075;-72
2022/01/11 04:53:47;;;;;;;8.65;4.30;;;3.60;86.70;;;;;;6047796;23;20825;-71
2022/01/11 04:56:18;;;;;;;13.40;4.50;;;3.60;86.70;;;;;;6073634;23;20118;-72
2022/01/11 04:58:45;;;;;;;7.78;3.88;;;3.60;86.70;;;;;;6071890;23;20470;-72
2022/01/11 05:01:12;;;;;;;7.45;3.88;;;3.60;86.70;;;;;;6073556;23;20023;-72
2022/01/11 05:03:41;;;;;;;9.77;4.88;;;3.60;86.70;;;;;;6075050;23;20521;-71
2022/01/11 05:06:10;;;;;;;8.98;4.65;;;3.60;86.60;;;;;;6051264;23;20027;-72
2022/01/11 05:08:39;;;;;;;8.95;4.00;;;3.60;86.50;;;;;;6075002;23;20134;-71
2022/01/11 05:11:08;;;;;;;10.32;4.90;;;3.60;86.60;;;;;;6075831;23;20027;-71
2022/01/11 05:13:36;;;;;;;10.23;4.65;;;3.60;86.60;;;;;;6078307;23;20031;-71
2022/01/11 05:16:09;;;;;;;11.48;4.57;;;3.60;86.60;;;;;;6078730;23;20121;-71
2022/01/11 05:18:37;;;;;;;8.73;4.53;;;3.60;86.60;;;;;;6077913;23;20022;-72
2022/01/11 05:21:05;;;;;;;11.38;5.10;;;3.70;86.60;;;;;;6077711;23;20031;-71
2022/01/11 05:23:34;;;;;;;8.05;4.60;;;3.60;86.60;;;;;;6056327;23;20023;-71
2022/01/11 05:26:02;;;;;;;8.95;4.20;;;3.60;86.50;;;;;;6078901;23;20027;-71
2022/01/11 05:28:30;;;;;;;10.82;4.88;;;3.60;86.60;;;;;;6079628;23;20027;-73
2022/01/11 05:30:57;;;;;;;9.52;4.43;;;3.60;86.50;;;;;;6055968;23;20082;-71
2022/01/11 05:33:24;;;;;;;11.05;5.60;;;3.60;86.60;;;;;;6054941;23;20029;-71
2022/01/11 05:35:51;;;;;;;10.73;4.72;;;3.60;86.60;;;;;;6055653;23;20027;-71
2022/01/11 05:38:18;;;;;;;12.05;5.57;;;3.70;86.60;;;;;;6053983;23;20022;-70
2022/01/11 05:40:48;;;;;;;10.30;5.25;;;3.60;86.60;;;;;;6051805;23;20545;-71
2022/01/11 05:43:15;;;;;;;10.23;5.50;;;3.70;86.70;;;;;;6078125;23;20555;-71
2022/01/11 05:45:43;;;;;;;10.15;5.15;;;3.70;86.70;;;;;;6052851;23;20029;-71
2022/01/11 05:48:10;;;;;;;8.55;4.47;;;3.70;86.60;;;;;;6053118;23;20019;-70
2022/01/11 05:50:40;;;;;;;9.90;5.97;;;3.60;86.60;;;;;;6076886;23;20023;-72
2022/01/11 05:53:09;;;;;;;10.45;5.55;;;3.60;86.70;;;;;;6076861;23;20399;-71
2022/01/11 05:55:36;;;;;;;10.20;4.90;;;3.70;86.70;;;;;;6053038;23;20450;-72
2022/01/11 05:58:04;;;;;;;10.07;5.53;;;3.70;86.60;;;;;;6055662;23;20122;-71
2022/01/11 06:00:32;;;;;;;12.63;4.63;;;3.70;86.50;;;;;;6050857;23;20037;-72
2022/01/11 06:02:59;;;;;;;11.93;5.50;;;3.70;86.60;;;;;;6076176;23;20056;-71
2022/01/11 06:05:38;;;;;;;9.10;4.22;;;3.70;86.60;;;;;;6075223;23;20044;-71
2022/01/11 06:08:07;;;;;;;12.77;5.20;;;3.70;86.60;;;;;;6048883;23;20054;-71
2022/01/11 06:10:35;;;;;;;10.30;6.22;;;3.60;86.60;;;;;;5973064;23;21065;-72
2022/01/11 06:13:22;;;;;;;7.14;3.56;;;3.60;86.60;;;;;;1088450;23;10150724;-72
2022/01/11 06:15:53;;;;;;;11.48;5.57;;;3.70;86.60;;;;;;6074624;23;20380;-72
2022/01/11 06:18:21;;;;;;;11.68;5.72;;;3.70;86.60;;;;;;6076663;23;20098;-70
2022/01/11 06:21:11;;;;;;;14.38;4.72;;;3.70;86.70;;;;;;6053521;23;20653;-73
2022/01/11 06:23:39;;;;;;;9.50;4.72;;;3.70;86.70;;;;;;6075438;23;20094;-72
2022/01/11 06:26:08;;;;;;;12.35;5.90;;;3.70;86.70;;;;;;6053942;23;20449;-70
2022/01/11 06:28:37;;;;;;;12.05;5.90;;;3.70;86.70;;;;;;6075552;23;20433;-72
2022/01/11 06:31:05;;;;;;;9.77;5.45;;;3.70;86.70;;;;;;6050943;23;20027;-72
2022/01/11 06:33:32;;;;;;;10.88;5.55;;;3.70;86.60;;;;;;6074141;23;20022;-72
2022/01/11 06:36:00;;;;;;;12.30;5.95;;;3.70;86.60;;;;;;6048551;23;20026;-71
2022/01/11 06:38:29;;;;;;;9.98;5.28;;;3.70;86.60;;;;;;6073820;23;20382;-70
2022/01/11 06:40:56;;;;;;;12.00;5.63;;;3.70;86.60;;;;;;6049501;23;20050;-70
2022/01/11 06:43:25;;;;;;;12.98;5.82;;;3.70;86.70;;;;;;6050925;23;20026;-70
2022/01/11 06:45:54;;;;;;;9.85;5.10;;;3.70;86.70;;;;;;6075400;23;20102;-71
2022/01/11 06:48:23;;;;;;;10.73;5.63;;;3.70;86.70;;;;;;6054524;23;20023;-72
2022/01/11 06:50:50;;;;;;;12.50;5.72;;;3.70;86.70;;;;;;6073025;23;20362;-70
2022/01/11 06:53:19;;;;;;;10.73;5.75;;;3.70;86.70;;;;;;6048474;23;20382;-71
2022/01/11 06:55:50;;;;;;;10.20;4.85;;;3.70;86.70;;;;;;6055116;23;20425;-71
2022/01/11 06:58:19;;;;;;;11.13;5.80;;;3.70;86.70;;;;;;6083187;23;20026;-71
2022/01/11 07:00:46;;;;;;;10.80;5.93;;;3.70;86.70;;;;;;6058996;23;20387;-71
2022/01/11 07:03:16;;;;;;;11.40;4.70;;;3.70;86.60;;;;;;6080843;23;20394;-71
2022/01/11 07:06:00;;;;;;;10.77;5.57;;;3.70;86.70;;;;;;6074737;23;20485;-71
2022/01/11 07:08:28;;;;;;;10.95;4.95;;;3.70;86.70;;;;;;6074328;23;20455;-70
2022/01/11 07:10:56;;;;;;;12.05;6.03;;;3.70;86.80;;;;;;6049017;23;20512;-71
2022/01/11 07:13:23;;;;;;;10.75;5.72;;;3.70;86.80;;;;;;6074665;23;20420;-71
2022/01/11 07:15:51;;;;;;;11.65;6.07;;;3.70;86.80;;;;;;6050023;23;20027;-71
2022/01/11 07:18:22;;;;;;;9.75;4.68;;;3.70;86.80;;;;;;6050966;23;20019;-72
2022/01/11 07:20:49;;;;;;;10.63;5.38;;;3.70;86.90;;;;;;6049806;23;20050;-71
2022/01/11 07:23:23;;;;;;;9.82;5.13;;;3.70;86.90;;;;;;6053027;23;20042;-71
2022/01/11 07:25:50;;;;;;;12.35;5.72;;;3.70;86.90;;;;;;6075299;23;20058;-71
2022/01/11 07:28:22;;;;;;;10.40;5.53;;;3.70;86.90;;;;;;6077338;23;20042;-71
2022/01/11 07:30:50;;;;;;;11.10;5.35;;;3.70;86.80;;;;;;6051753;23;20037;-72
2022/01/11 07:33:17;;;;;;;11.05;6.50;;;3.70;86.90;;;;;;6053568;23;20432;-71
2022/01/11 07:35:49;;;;;;;13.68;5.20;;;3.70;86.90;;;;;;6076988;23;20026;-72
2022/01/11 07:38:16;;;;;;;13.45;4.53;;;3.70;86.80;;;;;;6076527;23;20074;-71
2022/01/11 07:40:44;;;;;;;10.75;5.40;;;3.70;86.90;;;;;;6054708;23;20480;-70
2022/01/11 07:43:20;;;;;;;9.85;4.45;;;3.70;86.90;;;;;;6057371;23;20261;-70
2022/01/11 07:45:53;;;;;;;8.82;4.07;;;3.70;86.90;;;;;;6082752;23;20480;-70
2022/01/11 07:48:23;;;;;;;9.13;3.53;;;3.80;86.90;;;;;;6076605;23;20061;-72
2022/01/11 07:50:59;;;;;;;9.10;4.20;;;3.70;86.90;;;;;;6050134;23;20035;-72
2022/01/11 07:53:26;;;;;;;9.85;4.25;;;3.70;86.90;;;;;;6051522;23;20035;-73
2022/01/11 07:55:58;;;;;;;8.95;4.15;;;3.70;86.90;;;;;;6074758;23;20030;-72
2022/01/11 07:58:25;;;;;;;10.93;4.85;;;3.80;86.90;;;;;;6051416;23;20544;-72
2022/01/11 08:00:52;;;;;;;11.52;5.20;;;3.70;86.90;;;;;;6048319;23;20102;-70
2022/01/11 08:03:25;;;;;;;13.15;5.20;;;3.70;86.90;;;;;;6048506;23;20046;-72
2022/01/11 08:06:02;;;;;;;10.88;5.10;;;3.70;86.90;;;;;;6072555;23;20031;-71
2022/01/11 08:08:31;;;;;;;10.85;5.22;;;3.80;87.00;;;;;;6074009;23;20046;-72
2022/01/11 08:11:12;;;;;;;7.29;3.84;;;3.80;86.90;;;;;;3706508;23;10002370;-70
2022/01/11 08:13:39;;;;;;;15.00;6.47;;;3.80;87.00;;;;;;3137738;23;10002150;-70
2022/01/11 08:16:07;;;;;;;11.68;6.00;;;3.80;87.00;;;;;;6050558;23;20370;-70
2022/01/11 08:18:35;;;;;;;11.65;5.60;;;3.80;87.00;;;;;;6050798;23;20027;-72
2022/01/11 08:21:04;;;;;;;14.32;6.72;;;3.80;87.10;;;;;;6051455;23;20062;-72
2022/01/11 08:23:33;;;;;;;14.75;5.40;;;3.80;87.10;;;;;;6051684;23;20022;-72
2022/01/11 08:26:01;;;;;;;11.45;6.75;;;3.80;87.00;;;;;;6075952;23;20466;-71
2022/01/11 08:28:30;;;;;;;10.10;5.20;;;3.90;87.10;;;;;;6054344;23;20075;-71
2022/01/11 08:31:01;;;;;;;11.93;6.18;;;3.90;87.00;;;;;;6053159;23;20026;-71
2022/01/11 08:33:33;;;;;;;10.20;5.45;;;3.90;87.00;;;;;;6052122;23;20078;-71
2022/01/11 08:36:01;;;;;;;10.02;5.15;;;3.90;87.00;;;;;;6050419;23;20022;-71
2022/01/11 08:38:32;;;;;;;9.82;4.80;;;3.90;87.00;;;;;;6076229;23;20025;-71
2022/01/11 08:41:00;;;;;;;9.48;5.13;;;4.00;87.00;;;;;;6076031;23;20218;-71
2022/01/11 08:43:29;;;;;;;9.90;5.60;;;3.90;87.00;;;;;;6052068;23;20022;-71
2022/01/11 08:45:57;;;;;;;12.50;6.38;;;4.00;87.00;;;;;;6051504;23;20544;-70
2022/01/11 08:48:24;;;;;;;13.70;5.63;;;3.90;87.00;;;;;;6053458;23;20121;-70
2022/01/11 08:51:06;;;;;;;20.25;9.73;;;3.90;87.00;;;;;;6050779;23;20480;-71
2022/01/11 08:53:36;;;;;;;21.30;12.73;;;4.00;87.00;;;;;;6075578;23;20023;-71
2022/01/11 08:56:08;;;;;;;18.45;10.93;;;4.00;87.10;;;;;;6075077;23;20053;-71
2022/01/11 08:58:39;;;;;;;21.38;11.70;;;4.00;87.10;;;;;;6049876;23;20041;-71
2022/01/11 09:01:07;;;;;;;14.90;9.40;;;4.10;87.00;;;;;;6050475;23;20034;-71
2022/01/11 09:03:38;;;;;;;19.13;9.55;;;4.10;87.00;;;;;;6075509;23;20070;-73
2022/01/11 09:06:08;;;;;;;18.17;8.85;;;4.10;87.10;;;;;;6051563;23;20023;-72
2022/01/11 09:08:37;;;;;;;16.75;8.93;;;4.10;87.10;;;;;;6075831;23;20027;-71
2022/01/11 09:11:05;;;;;;;16.98;10.98;;;4.10;87.00;;;;;;6074110;23;20022;-72
2022/01/11 09:13:41;;;;;;;19.50;9.10;;;4.20;87.00;;;;;;6050508;23;20026;-72
2022/01/11 09:16:11;;;;;;;20.33;9.75;;;4.20;87.00;;;;;;6073590;23;20026;-71
2022/01/11 09:18:40;;;;;;;23.13;11.85;;;4.20;87.00;;;;;;6051855;23;20022;-71
2022/01/11 09:21:07;;;;;;;19.83;10.20;;;4.20;87.00;;;;;;6074848;23;20019;-72
2022/01/11 09:23:38;;;;;;;18.35;9.75;;;4.20;86.90;;;;;;6072525;23;20057;-70
2022/01/11 09:26:05;;;;;;;19.55;9.38;;;4.20;86.90;;;;;;6048854;23;20031;-72
2022/01/11 09:28:42;;;;;;;26.05;9.70;;;4.30;86.90;;;;;;6053159;23;20494;-71
2022/01/11 09:31:10;;;;;;;20.05;9.30;;;4.30;86.90;;;;;;6054318;23;20098;-71
2022/01/11 09:33:37;;;;;;;17.58;8.88;;;4.30;86.90;;;;;;6073263;23;20023;-71
2022/01/11 09:36:06;;;;;;;17.00;7.50;;;4.30;86.80;;;;;;6050548;23;20026;-71
2022/01/11 09:38:33;;;;;;;14.27;8.02;;;4.30;86.80;;;;;;6072262;23;20023;-71
2022/01/11 09:41:03;;;;;;;12.63;7.55;;;4.30;86.80;;;;;;6072458;23;20049;-72
2022/01/11 09:43:36;;;;;;;13.18;6.85;;;4.40;86.80;;;;;;6048959;23;20069;-72
2022/01/11 09:46:07;;;;;;;22.15;7.57;;;4.40;86.80;;;;;;6073532;23;20038;-72
2022/01/11 09:48:35;;;;;;;16.52;8.30;;;4.50;86.70;;;;;;6049332;23;20077;-73
2022/01/11 09:51:03;;;;;;;16.98;6.30;;;4.50;86.60;;;;;;6050881;23;20019;-72
2022/01/11 09:53:31;;;;;;;13.70;5.97;;;4.60;86.60;;;;;;6073038;23;20027;-73
2022/01/11 09:56:04;;;;;;;12.18;5.97;;;4.60;86.60;;;;;;6050347;23;20101;-70
2022/01/11 09:58:34;;;;;;;13.90;6.68;;;4.60;86.50;;;;;;6073534;23;20512;-71
2022/01/11 10:01:01;;;;;;;12.85;7.28;;;4.60;86.70;;;;;;6050702;23;20144;-71
2022/01/11 10:03:54;;;;;;;12.15;6.43;;;4.60;86.70;;;;;;6052106;23;20064;-70
2022/01/11 10:06:24;;;;;;;14.20;7.40;;;4.60;86.70;;;;;;6075122;23;20018;-70
2022/01/11 10:08:51;;;;;;;14.77;6.85;;;4.60;86.70;;;;;;6052732;23;20323;-70
2022/01/11 10:11:38;;;;;;;7.25;3.00;;;4.60;86.70;;;;;;3255162;23;10004038;-73
2022/01/11 10:14:34;;;;;;;12.88;6.57;;;4.70;86.70;;;;;;4378556;23;10001355;-70
2022/01/11 10:17:11;;;;;;;9.98;4.97;;;4.70;86.80;;;;;;6010216;23;20453;-71
2022/01/11 10:19:41;;;;;;;13.52;5.78;;;4.70;86.70;;;;;;6049685;23;20034;-72
2022/01/11 10:22:11;;;;;;;15.27;6.15;;;4.70;86.60;;;;;;6051280;23;20045;-70
2022/01/11 10:24:42;;;;;;;13.98;6.70;;;4.70;86.60;;;;;;6052867;23;20030;-70
2022/01/11 10:27:25;;;;;;;10.38;5.28;;;4.70;86.40;;;;;;6075538;23;20086;-71
2022/01/11 10:29:53;;;;;;;11.80;5.70;;;4.80;86.40;;;;;;6074947;23;20422;-72
2022/01/11 10:32:27;;;;;;;11.70;5.70;;;4.80;86.40;;;;;;6075683;23;20034;-70
2022/01/11 10:35:02;;;;;;;12.48;6.32;;;4.80;86.40;;;;;;6051710;23;20788;-71
2022/01/11 10:37:35;;;;;;;10.30;4.75;;;4.80;86.30;;;;;;6050651;23;20030;-71
2022/01/11 10:40:12;;;;;;;11.40;5.57;;;4.90;86.20;;;;;;6049552;23;20529;-71
2022/01/11 10:42:46;;;;;;;11.93;5.82;;;4.90;86.30;;;;;;6051652;23;20033;-70
2022/01/11 10:45:16;;;;;;;10.80;5.65;;;4.90;86.30;;;;;;6050825;23;20113;-70
2022/01/11 10:47:47;;;;;;;12.25;6.22;;;4.90;86.30;;;;;;6073761;23;20109;-72
2022/01/11 10:50:18;;;;;;;9.35;5.43;;;5.00;86.40;;;;;;6052955;23;20055;-72
2022/01/11 10:52:47;;;;;;;15.00;6.13;;;5.00;86.30;;;;;;6050659;23;20421;-71
2022/01/11 10:55:20;;;;;;;13.65;5.88;;;5.00;86.30;;;;;;6074992;23;20547;-72
2022/01/11 10:57:55;;;;;;;11.45;5.35;;;5.10;86.30;;;;;;6073848;23;20460;-72
2022/01/11 11:00:30;;;;;;;11.13;5.50;;;5.10;86.30;;;;;;6073295;23;20231;-72
2022/01/11 11:03:03;;;;;;;14.18;5.80;;;5.20;86.20;;;;;;6071639;23;20035;-70
2022/01/11 11:05:35;;;;;;;11.55;5.75;;;5.20;86.20;;;;;;6072302;23;20034;-71
2022/01/11 11:08:13;;;;;;;13.10;5.80;;;5.20;86.20;;;;;;6072066;23;20022;-72
2022/01/11 11:10:46;;;;;;;13.07;6.38;;;5.20;86.30;;;;;;6048639;23;20295;-71
2022/01/11 11:13:24;;;;;;;10.85;5.57;;;5.20;86.30;;;;;;6072541;23;20026;-71
2022/01/11 11:15:53;;;;;;;12.70;5.53;;;5.30;86.30;;;;;;6048400;23;20094;-69
2022/01/11 11:18:28;;;;;;;12.70;6.13;;;5.30;86.20;;;;;;6072826;23;20386;-70
2022/01/11 11:20:57;;;;;;;10.48;5.63;;;5.30;86.20;;;;;;6048595;23;20031;-71
2022/01/11 11:23:24;;;;;;;12.32;6.13;;;5.40;86.30;;;;;;6050314;23;20093;-71
2022/01/11 11:25:51;;;;;;;10.00;5.25;;;5.40;86.30;;;;;;6049643;23;20178;-71
2022/01/11 11:28:21;;;;;;;10.25;5.22;;;5.40;86.20;;;;;;6051829;23;20276;-71
2022/01/11 11:30:50;;;;;;;11.68;5.25;;;5.40;86.10;;;;;;6051234;23;20041;-71
2022/01/11 11:33:19;;;;;;;13.45;5.72;;;5.50;86.00;;;;;;6050383;23;20033;-71
2022/01/11 11:35:49;;;;;;;10.30;5.55;;;5.50;86.00;;;;;;6051441;23;20027;-71
2022/01/11 11:38:18;;;;;;;10.27;5.60;;;5.50;86.10;;;;;;6051806;23;20069;-70
2022/01/11 11:40:49;;;;;;;13.18;5.90;;;5.60;85.70;;;;;;6050508;23;20027;-71
2022/01/11 11:43:17;;;;;;;12.40;5.38;;;5.60;85.70;;;;;;6052711;23;20525;-70
2022/01/11 11:45:45;;;;;;;12.85;6.20;;;5.60;85.70;;;;;;6051777;23;20029;-72
2022/01/11 11:48:14;;;;;;;11.55;5.82;;;5.60;85.70;;;;;;6052315;23;20046;-70
2022/01/11 11:50:51;;;;;;;11.70;5.97;;;5.60;85.70;;;;;;6051733;23;20023;-73
2022/01/11 11:53:24;;;;;;;12.18;6.05;;;5.60;85.70;;;;;;6052990;23;20030;-70
2022/01/11 11:55:52;;;;;;;10.75;5.20;;;5.60;85.70;;;;;;6052558;23;20041;-70
2022/01/11 11:58:21;;;;;;;11.75;5.35;;;5.60;85.60;;;;;;6052368;23;20050;-70
2022/01/11 12:00:53;;;;;;;10.60;5.00;;;5.60;85.50;;;;;;6048419;23;20032;-72
2022/01/11 12:03:24;;;;;;;10.57;5.32;;;5.60;85.50;;;;;;6053429;23;20030;-70
2022/01/11 12:05:52;;;;;;;;;;;5.60;85.50;;;;;;6053383;23;20042;-70
2022/01/11 12:08:32;;;;;;;14.07;4.95;;;5.60;85.50;;;;;;6050794;23;19948;-72
2022/01/11 12:11:15;;;;;;;7.67;3.29;;;5.70;85.40;;;;;;4100178;23;10022765;-71
2022/01/11 12:13:46;;;;;;;11.68;5.30;;;5.70;85.50;;;;;;3962704;23;10002262;-71
2022/01/11 12:16:41;;;;;;;12.52;5.80;;;5.70;85.50;;;;;;6075770;23;20027;-72
2022/01/11 12:19:35;;;;;;;11.77;5.22;;;5.70;85.40;;;;;;6052920;23;20026;-72
2022/01/11 12:22:27;;;;;;;9.40;4.65;;;5.70;85.30;;;;;;6054421;23;20450;-71
2022/01/11 12:24:57;;;;;;;13.32;5.00;;;5.70;85.40;;;;;;6053382;23;20090;-71
2022/01/11 12:27:26;;;;;;;12.82;5.82;;;5.70;85.30;;;;;;6052018;23;20521;-71
2022/01/11 12:29:58;;;;;;;13.52;6.03;;;5.80;85.40;;;;;;6054156;23;20029;-71
2022/01/11 12:32:28;;;;;;;11.57;5.45;;;5.80;85.50;;;;;;6054816;23;20500;-70
2022/01/11 12:35:00;;;;;;;10.77;5.30;;;5.80;85.30;;;;;;6053225;23;20042;-70
2022/01/11 12:37:34;;;;;;;11.05;6.20;;;5.90;85.20;;;;;;6054130;23;20046;-72
2022/01/11 12:40:24;;;;;;;14.43;4.93;;;5.80;85.10;;;;;;6051798;23;20026;-71
2022/01/11 12:43:02;;;;;;;10.30;5.00;;;5.90;85.20;;;;;;6051591;23;20082;-72
2022/01/11 12:45:58;;;;;;;11.30;5.53;;;5.90;85.20;;;;;;6051833;23;20597;-70
2022/01/11 12:49:10;;;;;;;13.63;5.30;;;5.90;85.10;;;;;;6053143;23;20102;-72
2022/01/11 12:51:48;;;;;;;11.05;4.68;;;5.90;85.00;;;;;;6022277;23;20031;-70
2022/01/11 12:54:24;;;;;;;9.55;4.72;;;5.90;85.20;;;;;;6051990;23;20026;-70
2022/01/11 12:56:54;;;;;;;8.82;4.45;;;6.00;85.30;;;;;;6051826;23;20027;-70
2022/01/11 12:59:22;;;;;;;8.55;4.60;;;6.00;85.10;;;;;;6051601;23;20026;-70
2022/01/11 13:01:59;;;;;;;10.75;4.50;;;6.00;84.90;;;;;;6050394;23;20034;-71
2022/01/11 13:04:49;;;;;;;11.15;5.45;;;6.00;85.00;;;;;;6055270;23;20049;-72
2022/01/11 13:07:27;;;;;;;8.70;4.32;;;6.00;84.90;;;;;;6054226;23;20107;-72
2022/01/11 13:10:08;;;;;;;9.30;4.78;;;6.00;84.80;;;;;;6055071;23;20496;-72